createdAt,value
2023-04-24T00:01:16.229Z,12.80
2023-04-24T00:03:45.053Z,12.80
2023-04-24T00:06:13.840Z,12.90
2023-04-24T00:08:42.340Z,13.00
2023-04-24T00:11:11.542Z,13.10
2023-04-24T00:13:40.912Z,13.10
2023-04-24T00:16:09.484Z,13.10
2023-04-24T00:18:39.447Z,13.10
2023-04-24T00:21:08.488Z,13.10
2023-04-24T00:23:36.942Z,13.10
2023-04-24T00:26:05.504Z,13.10
2023-04-24T00:28:33.931Z,13.00
2023-04-24T00:31:02.440Z,13.00
2023-04-24T00:33:31.048Z,13.10
2023-04-24T00:36:01.066Z,13.20
2023-04-24T00:38:30.231Z,13.10
2023-04-24T00:40:58.817Z,13.10
2023-04-24T00:43:27.809Z,13.20
2023-04-24T00:45:57.004Z,13.10
2023-04-24T00:48:27.760Z,13.10
2023-04-24T00:50:56.413Z,13.10
2023-04-24T00:53:26.511Z,13.10
2023-04-24T00:55:55.433Z,13.10
2023-04-24T00:58:24.056Z,13.10
2023-04-24T01:00:54.762Z,13.00
2023-04-24T01:03:24.510Z,13.00
2023-04-24T01:05:53.413Z,13.00
2023-04-24T01:08:23.094Z,13.00
2023-04-24T01:10:54.188Z,12.90
2023-04-24T01:13:23.110Z,13.00
2023-04-24T01:15:51.803Z,13.00
2023-04-24T01:18:20.374Z,13.00
2023-04-24T01:20:49.258Z,12.90
2023-04-24T01:23:19.921Z,12.90
2023-04-24T01:25:48.836Z,12.80
2023-04-24T01:28:17.593Z,12.90
2023-04-24T01:30:46.762Z,12.90
2023-04-24T01:33:15.734Z,12.80
2023-04-24T01:35:44.785Z,12.80
2023-04-24T01:38:13.299Z,12.80
2023-04-24T01:40:43.367Z,12.90
2023-04-24T01:43:12.104Z,12.90
2023-04-24T01:45:40.595Z,12.90
2023-04-24T01:48:09.685Z,12.90
2023-04-24T01:50:38.144Z,12.90
2023-04-24T01:53:06.629Z,12.90
2023-04-24T01:55:35.660Z,12.90
2023-04-24T01:58:05.737Z,12.90
2023-04-24T02:00:34.289Z,12.90
2023-04-24T02:03:03.738Z,12.90
2023-04-24T02:05:32.348Z,12.90
2023-04-24T02:08:01.047Z,12.90
2023-04-24T02:10:32.362Z,13.00
2023-04-24T02:13:01.831Z,13.10
2023-04-24T02:15:32.450Z,13.10
2023-04-24T02:18:00.962Z,13.00
2023-04-24T02:20:30.104Z,13.00
2023-04-24T02:22:58.690Z,13.00
2023-04-24T02:25:27.492Z,12.90
2023-04-24T02:27:56.204Z,13.00
2023-04-24T02:30:24.725Z,13.00
2023-04-24T02:32:54.793Z,13.00
2023-04-24T02:35:23.304Z,13.10
2023-04-24T02:37:51.837Z,13.10
2023-04-24T02:40:20.513Z,13.00
2023-04-24T02:42:49.065Z,12.90
2023-04-24T02:45:17.759Z,12.90
2023-04-24T02:47:46.615Z,12.90
2023-04-24T02:50:18.387Z,13.00
2023-04-24T02:52:47.727Z,13.00
2023-04-24T02:55:17.564Z,13.00
2023-04-24T02:57:49.823Z,12.90
2023-04-24T03:00:19.094Z,12.90
2023-04-24T03:02:49.005Z,12.90
2023-04-24T03:05:21.317Z,12.90
2023-04-24T03:07:51.251Z,12.80
2023-04-24T03:10:20.981Z,12.80
2023-04-24T03:12:50.455Z,12.80
2023-04-24T03:15:19.391Z,12.80
2023-04-24T03:17:48.256Z,12.70
2023-04-24T03:20:18.863Z,12.70
2023-04-24T03:22:47.832Z,12.60
2023-04-24T03:25:16.961Z,12.60
2023-04-24T03:27:46.234Z,12.50
2023-04-24T03:30:15.120Z,12.50
2023-04-24T03:32:44.250Z,12.40
2023-04-24T03:35:13.353Z,12.40
2023-04-24T03:37:49.030Z,12.40
2023-04-24T03:40:18.955Z,12.40
2023-04-24T03:42:47.730Z,12.40
2023-04-24T03:45:16.889Z,12.40
2023-04-24T03:47:45.844Z,12.40
2023-04-24T03:50:14.808Z,12.40
2023-04-24T03:52:46.507Z,12.40
2023-04-24T03:55:20.249Z,12.40
2023-04-24T03:57:49.538Z,12.40
2023-04-24T04:00:19.787Z,12.40
2023-04-24T04:02:50.202Z,12.40
2023-04-24T04:05:19.149Z,12.30
2023-04-24T04:07:49.089Z,12.30
2023-04-24T04:10:18.364Z,12.40
2023-04-24T04:12:46.920Z,12.40
2023-04-24T04:15:15.543Z,12.40
2023-04-24T04:17:44.089Z,12.30
2023-04-24T04:20:13.179Z,12.40
2023-04-24T04:22:44.311Z,12.40
2023-04-24T04:25:15.148Z,12.40
2023-04-24T04:27:44.032Z,12.30
2023-04-24T04:30:12.882Z,12.30
2023-04-24T04:32:41.545Z,12.40
2023-04-24T04:35:10.561Z,12.40
2023-04-24T04:37:39.297Z,12.40
2023-04-24T04:40:10.614Z,12.50
2023-04-24T04:42:41.493Z,12.50
2023-04-24T04:45:12.582Z,12.50
2023-04-24T04:47:44.397Z,12.50
2023-04-24T04:50:12.982Z,12.50
2023-04-24T04:52:41.496Z,12.50
2023-04-24T04:55:10.592Z,12.50
2023-04-24T04:57:40.569Z,12.60
2023-04-24T05:00:11.569Z,12.50
2023-04-24T05:02:40.469Z,12.50
2023-04-24T05:05:09.964Z,12.60
2023-04-24T05:07:38.593Z,12.70
2023-04-24T05:10:08.394Z,12.70
2023-04-24T05:12:36.927Z,12.70
2023-04-24T05:15:07.777Z,12.70
2023-04-24T05:17:36.634Z,12.80
2023-04-24T05:20:06.490Z,12.90
2023-04-24T05:22:35.081Z,13.00
2023-04-24T05:25:03.795Z,13.10
2023-04-24T05:27:32.314Z,13.20
2023-04-24T05:30:00.802Z,13.40
2023-04-24T05:32:31.207Z,13.50
2023-04-24T05:34:59.656Z,13.50
2023-04-24T05:37:28.977Z,13.40
2023-04-24T05:39:57.481Z,13.40
2023-04-24T05:42:26.134Z,13.40
2023-04-24T05:44:57.952Z,13.30
2023-04-24T05:47:27.969Z,13.30
2023-04-24T05:49:57.975Z,13.30
2023-04-24T05:52:26.841Z,13.30
2023-04-24T05:54:55.383Z,13.20
2023-04-24T05:57:23.955Z,13.20
2023-04-24T05:59:52.454Z,13.30
2023-04-24T06:02:21.162Z,13.40
2023-04-24T06:04:49.766Z,13.50
2023-04-24T06:07:20.044Z,13.50
2023-04-24T06:09:48.776Z,13.70
2023-04-24T06:12:17.234Z,13.70
2023-04-24T06:14:45.795Z,13.70
2023-04-24T06:17:15.184Z,13.60
2023-04-24T06:19:43.829Z,13.50
2023-04-24T06:22:12.536Z,13.40
2023-04-24T06:24:42.846Z,13.50
2023-04-24T06:27:11.351Z,13.40
2023-04-24T06:29:40.195Z,13.40
2023-04-24T06:32:08.953Z,13.40
2023-04-24T06:34:37.907Z,13.30
2023-04-24T06:37:06.436Z,13.30
2023-04-24T06:39:34.973Z,13.30
2023-04-24T06:42:05.025Z,13.30
2023-04-24T06:44:33.513Z,13.40
2023-04-24T06:47:02.104Z,13.40
2023-04-24T06:49:31.721Z,13.40
2023-04-24T06:52:00.278Z,13.40
2023-04-24T06:54:29.299Z,13.40
2023-04-24T06:56:58.315Z,13.30
2023-04-24T06:59:28.895Z,13.20
2023-04-24T07:01:58.010Z,13.10
2023-04-24T07:04:26.939Z,13.10
2023-04-24T07:06:57.078Z,13.00
2023-04-24T07:09:26.552Z,13.10
2023-04-24T07:11:55.396Z,13.10
2023-04-24T07:14:23.813Z,13.10
2023-04-24T07:16:53.726Z,13.20
2023-04-24T07:19:22.155Z,13.20
2023-04-24T07:21:50.723Z,13.30
2023-04-24T07:24:21.013Z,13.40
2023-04-24T07:29:22.215Z,13.40
2023-04-24T07:31:50.755Z,13.50
2023-04-24T07:34:20.757Z,13.50
2023-04-24T07:36:49.474Z,13.70
2023-04-24T07:39:18.115Z,13.80
2023-04-24T07:41:46.613Z,13.80
2023-04-24T07:44:15.170Z,13.90
2023-04-24T07:46:51.224Z,13.90
2023-04-24T07:49:21.607Z,14.00
2023-04-24T07:51:50.069Z,14.00
2023-04-24T07:54:18.572Z,14.10
2023-04-24T07:56:47.171Z,14.20
2023-04-24T07:59:15.624Z,14.20
2023-04-24T08:01:44.053Z,14.40
2023-04-24T08:04:12.700Z,14.30
2023-04-24T08:06:42.883Z,14.20
2023-04-24T08:09:11.374Z,14.20
2023-04-24T08:11:39.937Z,14.40
2023-04-24T08:14:08.472Z,14.80
2023-04-24T08:16:37.729Z,14.90
2023-04-24T08:19:06.542Z,15.00
2023-04-24T08:21:35.069Z,15.00
2023-04-24T08:24:08.912Z,14.90
2023-04-24T08:26:37.503Z,14.70
2023-04-24T08:29:07.687Z,14.60
2023-04-24T08:31:36.876Z,14.50
2023-04-24T08:34:05.410Z,14.40
2023-04-24T08:36:45.813Z,14.50
2023-04-24T08:39:17.064Z,14.80
2023-04-24T08:41:47.816Z,14.90
2023-04-24T08:44:17.350Z,14.90
2023-04-24T08:46:48.688Z,14.90
2023-04-24T08:49:18.593Z,14.70
2023-04-24T08:51:49.170Z,14.60
2023-04-24T08:54:20.063Z,14.40
2023-04-24T08:56:50.576Z,14.40
2023-04-24T08:59:19.220Z,14.30
2023-04-24T09:01:50.135Z,14.20
2023-04-24T09:04:21.208Z,14.10
2023-04-24T09:06:50.567Z,14.10
2023-04-24T09:09:21.181Z,14.10
2023-04-24T09:11:51.374Z,14.10
2023-04-24T09:14:21.161Z,14.20
2023-04-24T09:16:50.548Z,14.20
2023-04-24T09:19:19.476Z,14.20
2023-04-24T09:21:48.950Z,14.20
2023-04-24T09:24:22.022Z,14.20
2023-04-24T09:26:59.523Z,14.20
2023-04-24T09:29:28.097Z,14.20
2023-04-24T09:31:56.636Z,14.20
2023-04-24T09:34:26.219Z,14.10
2023-04-24T09:36:56.003Z,14.10
2023-04-24T09:39:25.925Z,14.10
2023-04-24T09:41:56.753Z,14.20
2023-04-24T09:44:26.372Z,14.20
2023-04-24T09:46:57.764Z,14.20
2023-04-24T09:49:27.956Z,14.20
2023-04-24T09:52:05.910Z,14.20
2023-04-24T09:54:37.912Z,14.20
2023-04-24T09:57:06.860Z,14.10
2023-04-24T09:59:37.350Z,13.90
2023-04-24T10:02:18.871Z,13.90
2023-04-24T10:04:57.816Z,13.90
2023-04-24T10:07:29.307Z,13.90
2023-04-24T10:09:59.514Z,13.90
2023-04-24T10:12:30.184Z,13.80
2023-04-24T10:14:59.828Z,13.70
2023-04-24T10:17:30.628Z,13.70
2023-04-24T10:20:00.543Z,13.60
2023-04-24T10:22:31.380Z,13.70
2023-04-24T10:25:01.960Z,13.70
2023-04-24T10:27:32.937Z,13.70
2023-04-24T10:30:02.412Z,13.70
2023-04-24T10:32:31.293Z,13.70
2023-04-24T10:34:59.856Z,13.70
2023-04-24T10:37:32.782Z,13.70
2023-04-24T10:40:02.688Z,13.70
2023-04-24T10:42:31.569Z,13.70
2023-04-24T10:45:00.437Z,13.80
2023-04-24T10:47:29.192Z,13.80
2023-04-24T10:50:02.479Z,14.00
2023-04-24T10:52:49.503Z,14.10
2023-04-24T10:55:41.463Z,14.20
2023-04-24T10:58:10.046Z,14.20
2023-04-24T11:00:40.333Z,14.20
2023-04-24T11:03:09.508Z,14.20
2023-04-24T11:05:55.867Z,14.20
2023-04-24T11:08:31.901Z,14.20
2023-04-24T11:11:04.019Z,14.10
2023-04-24T11:14:05.320Z,14.00
2023-04-24T11:16:35.625Z,13.90
2023-04-24T11:19:06.152Z,14.00
2023-04-24T11:21:40.980Z,14.00
2023-04-24T11:24:27.051Z,14.00
2023-04-24T11:26:59.165Z,14.00
2023-04-24T11:29:45.057Z,14.00
2023-04-24T11:32:38.148Z,13.80
2023-04-24T11:35:08.743Z,13.70
2023-04-24T11:37:38.791Z,13.50
2023-04-24T11:40:10.420Z,13.50
2023-04-24T11:42:42.233Z,13.50
2023-04-24T11:45:12.474Z,13.50
2023-04-24T11:47:42.623Z,13.50
2023-04-24T11:50:12.942Z,13.60
2023-04-24T11:52:42.931Z,13.70
2023-04-24T11:55:27.175Z,13.70
2023-04-24T11:57:59.393Z,13.80
2023-04-24T12:00:29.900Z,13.80
2023-04-24T12:03:08.498Z,14.00
2023-04-24T12:05:37.447Z,14.00
2023-04-24T12:08:06.626Z,14.00
2023-04-24T12:10:36.522Z,13.90
2023-04-24T12:13:06.619Z,13.90
2023-04-24T12:15:35.136Z,13.90
2023-04-24T12:18:03.739Z,13.80
2023-04-24T12:20:34.154Z,13.70
2023-04-24T12:23:03.775Z,13.70
2023-04-24T12:25:33.894Z,13.60
2023-04-24T12:28:14.890Z,13.40
2023-04-24T12:30:45.983Z,13.30
2023-04-24T12:33:14.763Z,13.20
2023-04-24T12:35:44.169Z,13.10
2023-04-24T12:38:14.897Z,13.10
2023-04-24T12:40:45.209Z,13.10
2023-04-24T12:43:19.727Z,13.20
2023-04-24T12:45:48.563Z,13.20
2023-04-24T12:48:17.267Z,13.20
2023-04-24T12:50:47.300Z,13.20
2023-04-24T12:53:16.940Z,13.20
2023-04-24T12:55:45.933Z,13.20
2023-04-24T12:58:14.442Z,13.10
2023-04-24T13:00:46.971Z,13.10
2023-04-24T13:03:16.486Z,13.10
2023-04-24T13:05:45.324Z,13.00
2023-04-24T13:08:14.493Z,12.90
2023-04-24T13:10:42.999Z,12.80
2023-04-24T13:13:11.580Z,12.70
2023-04-24T13:15:40.371Z,12.60
2023-04-24T13:18:10.223Z,12.50
2023-04-24T13:20:38.695Z,12.50
2023-04-24T13:23:07.234Z,12.40
2023-04-24T13:25:40.270Z,12.20
2023-04-24T13:28:08.965Z,12.20
2023-04-24T13:30:37.549Z,12.20
2023-04-24T13:33:06.245Z,12.10
2023-04-24T13:35:36.275Z,12.10
2023-04-24T13:38:07.101Z,12.10
2023-04-24T13:40:36.520Z,12.10
2023-04-24T13:43:05.037Z,12.20
2023-04-24T13:45:33.566Z,12.20
2023-04-24T13:48:03.291Z,12.20
2023-04-24T13:50:31.883Z,12.30
2023-04-24T13:53:02.956Z,12.30
2023-04-24T13:55:32.145Z,12.20
2023-04-24T13:58:00.983Z,12.20
2023-04-24T14:00:30.151Z,12.10
2023-04-24T14:02:58.830Z,12.10
2023-04-24T14:05:27.722Z,12.10
2023-04-24T14:07:56.492Z,12.00
2023-04-24T14:10:26.771Z,12.00
2023-04-24T14:12:55.499Z,12.00
2023-04-24T14:15:24.084Z,11.90
2023-04-24T14:17:52.737Z,11.90
2023-04-24T14:20:21.485Z,11.80
2023-04-24T14:22:50.011Z,11.70
2023-04-24T14:25:18.579Z,11.60
2023-04-24T14:27:48.795Z,11.60
2023-04-24T14:30:17.720Z,11.50
2023-04-24T14:32:48.184Z,11.50
2023-04-24T14:35:16.877Z,11.40
2023-04-24T14:37:45.485Z,11.30
2023-04-24T14:40:33.728Z,11.30
2023-04-24T14:43:04.408Z,11.30
2023-04-24T14:45:33.036Z,11.30
2023-04-24T14:48:01.653Z,11.30
2023-04-24T14:50:30.527Z,11.30
2023-04-24T14:52:59.959Z,11.30
2023-04-24T14:55:29.020Z,11.20
2023-04-24T14:57:57.718Z,11.10
2023-04-24T15:00:27.770Z,11.10
2023-04-24T15:02:56.450Z,11.00
2023-04-24T15:05:26.473Z,10.90
2023-04-24T15:07:55.216Z,10.90
2023-04-24T15:10:24.993Z,10.90
2023-04-24T15:12:53.900Z,10.90
2023-04-24T15:15:22.561Z,10.90
2023-04-24T15:17:52.526Z,10.80
2023-04-24T15:20:21.249Z,10.80
2023-04-24T15:22:50.276Z,10.70
2023-04-24T15:25:19.045Z,10.70
2023-04-24T15:27:48.195Z,10.60
2023-04-24T15:30:16.952Z,10.60
2023-04-24T15:32:45.560Z,10.60
2023-04-24T15:35:15.803Z,10.60
2023-04-24T15:37:44.685Z,10.60
2023-04-24T15:40:14.463Z,10.50
2023-04-24T15:42:44.585Z,10.50
2023-04-24T15:45:13.919Z,10.50
2023-04-24T15:47:42.526Z,10.50
2023-04-24T15:50:14.436Z,10.40
2023-04-24T15:52:45.067Z,10.40
2023-04-24T15:55:13.976Z,10.40
2023-04-24T15:57:42.496Z,10.30
2023-04-24T16:00:12.329Z,10.20
2023-04-24T16:02:41.191Z,10.10
2023-04-24T16:05:11.309Z,10.10
2023-04-24T16:07:40.517Z,10.00
2023-04-24T16:10:11.694Z,10.00
2023-04-24T16:12:40.202Z,9.90
2023-04-24T16:15:09.513Z,9.90
2023-04-24T16:17:38.220Z,9.90
2023-04-24T16:20:08.227Z,9.80
2023-04-24T16:22:37.106Z,9.70
2023-04-24T16:25:06.234Z,9.60
2023-04-24T16:27:36.523Z,9.50
2023-04-24T16:30:06.166Z,9.50
2023-04-24T16:32:34.864Z,9.40
2023-04-24T16:35:03.538Z,9.50
2023-04-24T16:37:32.126Z,9.40
2023-04-24T16:40:00.651Z,9.50
2023-04-24T16:42:29.224Z,9.50
2023-04-24T16:44:59.148Z,9.60
2023-04-24T16:47:27.780Z,9.60
2023-04-24T16:49:56.359Z,9.60
2023-04-24T16:52:24.923Z,9.60
2023-04-24T16:54:53.432Z,9.60
2023-04-24T16:57:22.104Z,9.70
2023-04-24T16:59:50.683Z,9.70
2023-04-24T17:02:20.869Z,9.60
2023-04-24T17:04:49.394Z,9.60
2023-04-24T17:07:18.073Z,9.50
2023-04-24T17:09:46.611Z,9.50
2023-04-24T17:12:15.083Z,9.50
2023-04-24T17:14:43.572Z,9.50
2023-04-24T17:17:12.198Z,9.60
2023-04-24T17:19:42.170Z,9.60
2023-04-24T17:22:10.719Z,9.60
2023-04-24T17:24:42.615Z,9.60
2023-04-24T17:27:15.256Z,9.60
2023-04-24T17:29:47.187Z,9.60
2023-04-24T17:32:17.650Z,9.70
2023-04-24T17:34:49.251Z,9.60
2023-04-24T17:37:20.114Z,9.60
2023-04-24T17:39:54.863Z,9.60
2023-04-24T17:42:23.979Z,9.50
2023-04-24T17:44:52.577Z,9.50
2023-04-24T17:47:22.544Z,9.50
2023-04-24T17:49:53.042Z,9.60
2023-04-24T17:52:21.889Z,9.60
2023-04-24T17:54:50.638Z,9.60
2023-04-24T17:57:19.501Z,9.60
2023-04-24T17:59:48.111Z,9.60
2023-04-24T18:02:17.006Z,9.60
2023-04-24T18:04:45.921Z,9.50
2023-04-24T18:07:16.303Z,9.50
2023-04-24T18:09:44.886Z,9.60
2023-04-24T18:12:13.399Z,9.50
2023-04-24T18:14:42.292Z,9.50
2023-04-24T18:17:11.130Z,9.40
2023-04-24T18:19:39.658Z,9.30
2023-04-24T18:22:08.518Z,9.30
2023-04-24T18:24:38.615Z,9.40
2023-04-24T18:27:07.210Z,9.30
2023-04-24T18:29:35.861Z,9.30
2023-04-24T18:32:05.404Z,9.30
2023-04-24T18:34:34.052Z,9.30
2023-04-24T18:37:02.669Z,9.20
2023-04-24T18:39:31.588Z,9.20
2023-04-24T18:42:02.088Z,9.20
2023-04-24T18:44:31.153Z,9.20
2023-04-24T18:47:00.295Z,9.30
2023-04-24T18:49:29.433Z,9.30
2023-04-24T18:51:58.888Z,9.20
2023-04-24T18:54:28.893Z,9.20
2023-04-24T18:56:57.974Z,9.30
2023-04-24T18:59:28.063Z,9.20
2023-04-24T19:01:56.964Z,9.30
2023-04-24T19:04:25.893Z,9.30
2023-04-24T19:06:54.938Z,9.20
2023-04-24T19:09:31.994Z,9.20
2023-04-24T19:12:01.863Z,9.20
2023-04-24T19:14:32.536Z,9.20
2023-04-24T19:17:01.402Z,9.20
2023-04-24T19:19:32.197Z,9.20
2023-04-24T19:22:01.481Z,9.20
2023-04-24T19:24:31.428Z,9.20
2023-04-24T19:26:59.970Z,9.30
2023-04-24T19:29:29.025Z,9.20
2023-04-24T19:31:59.470Z,9.20
2023-04-24T19:34:29.715Z,9.20
2023-04-24T19:36:58.318Z,9.20
2023-04-24T19:39:27.002Z,9.20
2023-04-24T19:41:57.442Z,9.20
2023-04-24T19:44:26.452Z,9.20
2023-04-24T19:46:55.332Z,9.30
2023-04-24T19:49:25.665Z,9.30
2023-04-24T19:51:54.163Z,9.30
2023-04-24T19:54:23.409Z,9.30
2023-04-24T19:56:52.209Z,9.40
2023-04-24T19:59:21.152Z,9.40
2023-04-24T20:01:51.116Z,9.40
2023-04-24T20:04:23.268Z,9.50
2023-04-24T20:06:54.018Z,9.40
2023-04-24T20:09:22.764Z,9.50
2023-04-24T20:11:52.878Z,9.50
2023-04-24T20:14:21.534Z,9.50
2023-04-24T20:16:51.238Z,9.50
2023-04-24T20:19:19.876Z,9.60
2023-04-24T20:21:48.482Z,9.60
2023-04-24T20:24:19.029Z,9.50
2023-04-24T20:26:47.627Z,9.50
2023-04-24T20:29:16.173Z,9.50
2023-04-24T20:31:44.753Z,9.60
2023-04-24T20:34:13.388Z,9.50
2023-04-24T20:36:45.610Z,9.50
2023-04-24T20:39:18.088Z,9.50
2023-04-24T20:41:47.686Z,9.50
2023-04-24T20:44:16.232Z,9.60
2023-04-24T20:46:44.943Z,9.50
2023-04-24T20:49:13.463Z,9.60
2023-04-24T20:51:42.453Z,9.60
2023-04-24T20:54:11.014Z,9.60
2023-04-24T20:56:40.926Z,9.70
2023-04-24T20:59:09.405Z,9.70
2023-04-24T21:01:37.948Z,9.70
2023-04-24T21:04:06.544Z,9.70
2023-04-24T21:06:35.070Z,9.70
2023-04-24T21:09:03.830Z,9.60
2023-04-24T21:11:32.515Z,9.70
2023-04-24T21:14:02.829Z,9.60
2023-04-24T21:16:31.751Z,9.60
2023-04-24T21:19:00.287Z,9.60
2023-04-24T21:21:29.134Z,9.50
2023-04-24T21:23:57.661Z,9.50
2023-04-24T21:26:26.160Z,9.50
2023-04-24T21:28:54.842Z,9.60
2023-04-24T21:31:24.819Z,9.50
2023-04-24T21:33:53.281Z,9.60
2023-04-24T21:36:21.810Z,9.60
2023-04-24T21:38:50.352Z,9.60
2023-04-24T21:41:18.950Z,9.60
2023-04-24T21:43:49.687Z,9.60
2023-04-24T21:46:19.312Z,9.60
2023-04-24T21:48:49.300Z,9.60
2023-04-24T21:51:18.227Z,9.50
2023-04-24T21:53:47.067Z,9.60
2023-04-24T21:56:16.140Z,9.60
2023-04-24T21:58:44.823Z,9.60
2023-04-24T22:01:15.700Z,9.50
2023-04-24T22:03:44.406Z,9.50
2023-04-24T22:06:14.904Z,9.40
2023-04-24T22:08:47.464Z,9.40
2023-04-24T22:11:25.764Z,9.40
2023-04-24T22:13:55.720Z,9.40
2023-04-24T22:16:25.307Z,9.40
2023-04-24T22:18:55.399Z,9.40
2023-04-24T22:21:25.782Z,9.40
2023-04-24T22:23:54.220Z,9.30
2023-04-24T22:26:23.097Z,9.30
2023-04-24T22:28:51.597Z,9.30
2023-04-24T22:31:20.157Z,9.30
2023-04-24T22:33:49.295Z,9.20
2023-04-24T22:36:18.219Z,9.20
2023-04-24T22:38:48.210Z,9.20
2023-04-24T22:41:16.781Z,9.20
2023-04-24T22:43:45.927Z,9.10
2023-04-24T22:46:14.724Z,9.10
2023-04-24T22:48:43.233Z,9.10
2023-04-24T22:51:12.042Z,9.10
2023-04-24T22:53:40.551Z,9.10
2023-04-24T22:56:10.661Z,9.10
2023-04-24T22:58:39.189Z,9.00
2023-04-24T23:01:07.945Z,9.00
2023-04-24T23:03:36.909Z,9.00
2023-04-24T23:06:06.069Z,9.00
2023-04-24T23:08:34.894Z,8.90
2023-04-24T23:11:03.550Z,9.00
2023-04-24T23:13:33.538Z,8.90
2023-04-24T23:16:02.106Z,8.90
2023-04-24T23:18:30.943Z,8.90
2023-04-24T23:21:02.454Z,8.90
2023-04-24T23:23:31.278Z,8.90
2023-04-24T23:25:59.963Z,8.90
2023-04-24T23:28:29.086Z,8.90
2023-04-24T23:30:59.153Z,8.80
2023-04-24T23:33:28.892Z,8.80
2023-04-24T23:35:58.530Z,8.70
2023-04-24T23:38:30.113Z,8.80
2023-04-24T23:41:02.776Z,8.80
2023-04-24T23:43:31.554Z,8.80
2023-04-24T23:46:01.525Z,8.80
2023-04-24T23:48:30.376Z,8.80
2023-04-24T23:50:58.904Z,8.80
2023-04-24T23:53:27.744Z,8.90
2023-04-24T23:55:56.614Z,8.90
2023-04-24T23:58:25.187Z,8.90
